Time;durP1;ratioP1;P1;durP2;ratioP2;P2;SDS_P1;SDS_P2;PMS_P1;PMS_P2;Temp;Humidity;BMP_temperature;BMP_pressure;BME280_temperature;BME280_humidity;BME280_pressure;Samples;Min_cycle;Max_cycle;Signal;HPM_P1;HPM_P2
2023/05/29 00:01:47;;;;;;;12.30;2.57;;;11.10;99.90;;;;;;5032696;28;20258;-57
2023/05/29 00:04:16;;;;;;;13.30;2.70;;;11.20;99.90;;;;;;5052123;28;20304;-57
2023/05/29 00:06:44;;;;;;;10.77;2.33;;;11.10;99.90;;;;;;5046660;28;20265;-57
2023/05/29 00:09:12;;;;;;;13.70;2.53;;;11.00;99.90;;;;;;5045518;28;20714;-57
2023/05/29 00:11:42;;;;;;;9.50;2.00;;;11.00;99.90;;;;;;5032162;28;20294;-56
2023/05/29 00:14:13;;;;;;;11.57;2.30;;;10.90;99.90;;;;;;5032200;28;20309;-58
2023/05/29 00:16:43;;;;;;;14.03;2.47;;;10.90;99.90;;;;;;5034518;28;20230;-58
2023/05/29 00:19:12;;;;;;;14.17;2.40;;;10.90;99.90;;;;;;5047953;28;20231;-58
2023/05/29 00:21:40;;;;;;;11.47;2.87;;;10.90;99.90;;;;;;5054898;28;20654;-57
2023/05/29 00:24:08;;;;;;;12.33;2.70;;;10.80;99.90;;;;;;5053104;28;20684;-57
2023/05/29 00:26:36;;;;;;;12.57;2.60;;;10.80;99.90;;;;;;5035881;28;20586;-57
2023/05/29 00:29:04;;;;;;;8.83;2.30;;;10.80;99.90;;;;;;5034497;28;20776;-57
2023/05/29 00:31:35;;;;;;;11.80;3.17;;;10.70;99.90;;;;;;5035453;28;20293;-57
2023/05/29 00:34:03;;;;;;;10.90;2.47;;;10.70;99.90;;;;;;5054386;28;20284;-57
2023/05/29 00:36:32;;;;;;;10.57;2.67;;;10.70;99.90;;;;;;5058959;28;20310;-57
2023/05/29 00:39:00;;;;;;;14.07;2.53;;;10.70;99.90;;;;;;5054710;28;20272;-57
2023/05/29 00:41:28;;;;;;;13.03;2.90;;;10.60;99.90;;;;;;5036192;28;20233;-57
2023/05/29 00:43:56;;;;;;;9.30;2.67;;;10.70;99.90;;;;;;5038668;28;20577;-57
2023/05/29 00:46:24;;;;;;;10.87;2.73;;;10.70;99.90;;;;;;5055814;28;20228;-56
2023/05/29 00:48:54;;;;;;;11.57;2.73;;;10.70;99.90;;;;;;5057694;28;20643;-57
2023/05/29 00:51:23;;;;;;;13.90;3.13;;;10.60;99.90;;;;;;5055274;28;20266;-57
2023/05/29 00:53:53;;;;;;;13.10;2.67;;;10.50;99.90;;;;;;5055351;28;20304;-57
2023/05/29 00:56:22;;;;;;;15.63;2.70;;;10.50;99.90;;;;;;5038304;28;20234;-56
2023/05/29 00:58:52;;;;;;;10.20;2.20;;;10.60;99.90;;;;;;5035254;28;20237;-57
2023/05/29 01:01:21;;;;;;;13.77;2.87;;;10.50;99.90;;;;;;5034934;28;20706;-57
2023/05/29 01:03:49;;;;;;;11.63;2.40;;;10.40;99.90;;;;;;5051850;28;20233;-57
2023/05/29 01:06:19;;;;;;;9.73;2.40;;;10.40;99.90;;;;;;5053395;28;20226;-57
2023/05/29 01:08:47;;;;;;;11.37;2.77;;;10.30;99.90;;;;;;5051460;28;20288;-55
2023/05/29 01:11:26;;;;;;;13.10;2.93;;;10.30;99.90;;;;;;5040973;28;20304;-57
2023/05/29 01:13:57;;;;;;;14.43;2.83;;;10.30;99.90;;;;;;5035086;28;20680;-57
2023/05/29 01:16:33;;;;;;;16.90;2.80;;;10.20;99.90;;;;;;5033668;28;20229;-56
2023/05/29 01:19:12;;;;;;;12.80;2.40;;;10.30;99.90;;;;;;5045364;28;20248;-57
2023/05/29 01:21:57;;;;;;;15.37;2.73;;;10.20;99.90;;;;;;5054357;28;20259;-57
2023/05/29 01:24:38;;;;;;;13.03;2.27;;;10.10;99.90;;;;;;5054037;28;20217;-57
2023/05/29 01:27:10;;;;;;;10.50;2.50;;;10.30;99.90;;;;;;5034115;28;20698;-58
2023/05/29 01:29:42;;;;;;;10.37;2.20;;;10.30;99.90;;;;;;5033299;28;20748;-57
2023/05/29 01:32:11;;;;;;;8.97;2.73;;;10.30;99.90;;;;;;5052058;28;20627;-57
2023/05/29 01:34:39;;;;;;;10.87;2.30;;;10.30;99.90;;;;;;5050736;28;20223;-57
2023/05/29 01:37:07;;;;;;;8.53;2.70;;;10.30;99.90;;;;;;5053060;28;20217;-57
2023/05/29 01:39:37;;;;;;;14.53;3.10;;;10.30;99.90;;;;;;5034608;28;20219;-57
2023/05/29 01:42:07;;;;;;;11.57;2.77;;;10.20;99.90;;;;;;5035686;28;20313;-57
2023/05/29 01:44:36;;;;;;;11.57;2.57;;;10.20;99.90;;;;;;5034461;28;20706;-57
2023/05/29 01:47:05;;;;;;;11.83;2.33;;;10.20;99.90;;;;;;5034426;28;20618;-57
2023/05/29 01:49:37;;;;;;;13.53;2.63;;;10.20;99.90;;;;;;5049210;28;20224;-57
2023/05/29 01:52:06;;;;;;;11.97;2.10;;;10.10;99.90;;;;;;5046314;28;20258;-57
2023/05/29 01:54:34;;;;;;;14.23;2.50;;;10.10;99.90;;;;;;5052806;28;20255;-57
2023/05/29 01:57:05;;;;;;;8.13;2.00;;;10.10;99.90;;;;;;5047742;28;20235;-56
2023/05/29 01:59:37;;;;;;;12.90;2.73;;;10.10;99.90;;;;;;5035792;28;20252;-57
2023/05/29 02:02:09;;;;;;;11.33;2.63;;;10.00;99.90;;;;;;5038077;28;20252;-57
2023/05/29 02:04:37;;;;;;;11.80;2.60;;;10.00;99.90;;;;;;5057198;28;20224;-57
2023/05/29 02:07:06;;;;;;;9.80;2.30;;;10.00;99.90;;;;;;5044770;28;20239;-57
2023/05/29 02:09:36;;;;;;;10.60;2.37;;;10.00;99.90;;;;;;5069177;28;20279;-57
2023/05/29 02:12:05;;;;;;;8.87;1.70;;;10.00;99.90;;;;;;5040782;28;20245;-57
2023/05/29 02:14:34;;;;;;;9.80;2.53;;;10.00;99.90;;;;;;5047407;28;20240;-57
2023/05/29 02:17:02;;;;;;;7.57;2.33;;;9.90;99.90;;;;;;5052460;28;20221;-57
2023/05/29 02:19:30;;;;;;;9.30;1.97;;;9.90;99.90;;;;;;5057176;28;20295;-57
2023/05/29 02:22:00;;;;;;;11.53;2.30;;;9.80;99.90;;;;;;5053342;28;20651;-57
2023/05/29 02:24:29;;;;;;;12.27;2.40;;;9.80;99.90;;;;;;5053564;28;20274;-56
2023/05/29 02:26:57;;;;;;;10.77;2.13;;;9.90;99.90;;;;;;5053113;28;20294;-57
2023/05/29 02:29:25;;;;;;;8.67;2.33;;;9.90;99.90;;;;;;5053471;28;20659;-56
2023/05/29 02:31:56;;;;;;;13.07;2.43;;;9.90;99.90;;;;;;5037417;28;20229;-57
2023/05/29 02:34:24;;;;;;;10.63;2.43;;;9.90;99.90;;;;;;5053726;28;20566;-55
2023/05/29 02:36:52;;;;;;;10.50;2.00;;;10.00;99.90;;;;;;5054598;28;20256;-58
2023/05/29 02:39:21;;;;;;;10.87;2.63;;;10.10;99.90;;;;;;5052478;28;20247;-57
2023/05/29 02:41:49;;;;;;;9.13;2.50;;;10.10;99.90;;;;;;5045773;28;20248;-57
2023/05/29 02:44:17;;;;;;;11.83;2.60;;;10.10;99.90;;;;;;5033388;28;20229;-57
2023/05/29 02:46:45;;;;;;;13.10;2.60;;;10.00;99.90;;;;;;5033184;28;20354;-57
2023/05/29 02:49:14;;;;;;;14.17;2.63;;;10.00;99.90;;;;;;5045234;28;20225;-57
2023/05/29 02:51:42;;;;;;;14.57;2.17;;;10.00;99.90;;;;;;5051986;28;20561;-57
2023/05/29 02:54:12;;;;;;;10.83;2.80;;;10.10;99.90;;;;;;5053132;28;20217;-57
2023/05/29 02:56:41;;;;;;;12.63;2.40;;;10.00;99.90;;;;;;5049382;28;20235;-57
2023/05/29 02:59:09;;;;;;;12.43;2.57;;;10.00;99.90;;;;;;5033913;28;20322;-57
2023/05/29 03:01:37;;;;;;;13.83;3.87;;;10.00;99.90;;;;;;5031789;28;20326;-57
2023/05/29 03:04:06;;;;;;;11.03;1.90;;;10.10;99.90;;;;;;5044037;28;20320;-57
2023/05/29 03:06:36;;;;;;;9.27;2.70;;;10.20;99.90;;;;;;5054775;28;20270;-56
2023/05/29 03:09:05;;;;;;;10.00;2.30;;;10.10;99.90;;;;;;5031568;28;20250;-57
2023/05/29 03:11:35;;;;;;;9.50;2.53;;;10.20;99.90;;;;;;5033342;28;20258;-57
2023/05/29 03:14:03;;;;;;;11.30;2.20;;;10.10;99.90;;;;;;5052751;28;20227;-57
2023/05/29 03:16:31;;;;;;;9.87;2.10;;;10.20;99.90;;;;;;5052665;28;20622;-56
2023/05/29 03:19:00;;;;;;;11.40;2.60;;;10.20;99.90;;;;;;5055043;28;20220;-57
2023/05/29 03:21:28;;;;;;;8.87;2.03;;;10.20;99.90;;;;;;5049866;28;20242;-57
2023/05/29 03:23:58;;;;;;;9.53;2.20;;;10.20;99.90;;;;;;5051105;28;20225;-57
2023/05/29 03:26:26;;;;;;;11.40;2.83;;;10.10;99.90;;;;;;5051330;28;20724;-57
2023/05/29 03:28:55;;;;;;;8.90;2.00;;;10.10;99.90;;;;;;5035055;28;20596;-57
2023/05/29 03:31:23;;;;;;;11.00;2.83;;;10.20;99.90;;;;;;5030998;28;20776;-57
2023/05/29 03:33:51;;;;;;;7.60;2.27;;;10.20;99.90;;;;;;5031277;28;20279;-57
2023/05/29 03:36:23;;;;;;;11.77;2.50;;;10.20;99.90;;;;;;5052536;28;20228;-57
2023/05/29 03:38:51;;;;;;;8.10;2.07;;;10.20;99.90;;;;;;5051400;28;20603;-57
2023/05/29 03:41:21;;;;;;;11.53;2.93;;;10.10;99.90;;;;;;5051059;28;20230;-57
2023/05/29 03:43:52;;;;;;;10.63;2.20;;;10.10;99.90;;;;;;5050551;28;20725;-57
2023/05/29 03:46:22;;;;;;;8.60;2.20;;;10.10;99.90;;;;;;5051194;28;20264;-57
2023/05/29 03:48:50;;;;;;;8.27;2.20;;;10.20;99.90;;;;;;5050869;28;20255;-57
2023/05/29 03:51:18;;;;;;;12.30;2.50;;;10.30;99.90;;;;;;5043304;28;20316;-57
2023/05/29 03:53:46;;;;;;;9.20;2.20;;;10.30;99.90;;;;;;5056232;28;20701;-57
2023/05/29 03:56:14;;;;;;;11.30;2.53;;;10.40;99.90;;;;;;5055226;28;20320;-56
2023/05/29 03:58:44;;;;;;;14.87;3.33;;;10.30;99.90;;;;;;5044803;28;20306;-57
2023/05/29 04:01:13;;;;;;;10.77;2.20;;;10.40;99.90;;;;;;5034795;28;20241;-57
2023/05/29 04:03:43;;;;;;;14.40;2.33;;;10.30;99.90;;;;;;5036382;28;20647;-55
2023/05/29 04:06:12;;;;;;;8.70;2.27;;;10.30;99.90;;;;;;5054333;28;20224;-57
2023/05/29 04:08:40;;;;;;;13.60;2.80;;;10.50;99.90;;;;;;5054760;28;20222;-57
2023/05/29 04:11:11;;;;;;;11.53;2.80;;;10.60;99.90;;;;;;5050975;28;20300;-57
2023/05/29 04:13:40;;;;;;;7.87;2.20;;;10.70;99.90;;;;;;5054390;28;20320;-57
2023/05/29 04:16:09;;;;;;;10.87;2.43;;;10.80;99.90;;;;;;5054835;28;20225;-57
2023/05/29 04:18:38;;;;;;;9.20;2.77;;;10.80;99.90;;;;;;5054522;28;20317;-56
2023/05/29 04:21:07;;;;;;;12.53;2.50;;;10.90;99.90;;;;;;5053887;28;20264;-57
2023/05/29 04:23:35;;;;;;;11.23;2.90;;;10.90;99.90;;;;;;5054112;28;20233;-57
2023/05/29 04:26:03;;;;;;;12.57;2.47;;;11.10;99.90;;;;;;5054938;28;20280;-57
2023/05/29 04:28:32;;;;;;;9.23;2.70;;;11.10;99.90;;;;;;5048485;28;20226;-57
2023/05/29 04:31:02;;;;;;;14.77;2.83;;;11.10;99.90;;;;;;5034160;28;20240;-57
2023/05/29 04:33:32;;;;;;;11.23;2.57;;;11.10;99.90;;;;;;5034396;28;20223;-57
2023/05/29 04:36:00;;;;;;;11.00;2.50;;;11.10;99.90;;;;;;5049158;28;20315;-57
2023/05/29 04:38:28;;;;;;;10.53;2.70;;;11.10;99.90;;;;;;5054208;28;20316;-57
2023/05/29 04:40:58;;;;;;;14.23;3.27;;;11.10;99.90;;;;;;5054257;28;20242;-56
2023/05/29 04:43:28;;;;;;;11.97;3.07;;;11.10;99.90;;;;;;5051527;28;20221;-56
2023/05/29 04:46:05;;;;;;;12.03;2.93;;;11.10;99.90;;;;;;5054323;28;20319;-57
2023/05/29 04:48:40;;;;;;;11.70;2.63;;;11.10;99.90;;;;;;5054007;28;20225;-57
2023/05/29 04:51:10;;;;;;;13.07;2.97;;;11.20;99.90;;;;;;5059489;28;20322;-57
2023/05/29 04:53:40;;;;;;;15.23;2.90;;;11.30;99.90;;;;;;5050590;28;20693;-56
2023/05/29 04:56:09;;;;;;;12.57;2.83;;;11.30;99.90;;;;;;5054093;28;20651;-57
2023/05/29 04:58:37;;;;;;;12.83;3.00;;;11.30;99.90;;;;;;5051616;28;20633;-57
2023/05/29 05:01:07;;;;;;;12.03;2.60;;;11.40;99.90;;;;;;5053561;28;20591;-57
2023/05/29 05:03:38;;;;;;;17.40;3.17;;;11.40;99.90;;;;;;5052702;28;20235;-55
2023/05/29 05:06:07;;;;;;;11.90;3.40;;;11.40;99.90;;;;;;5053834;28;20257;-57
2023/05/29 05:08:36;;;;;;;14.23;3.60;;;11.40;99.90;;;;;;5053707;28;20655;-57
2023/05/29 05:11:06;;;;;;;12.83;3.23;;;11.50;99.90;;;;;;5053757;28;20292;-57
2023/05/29 05:13:34;;;;;;;16.03;3.33;;;11.70;99.90;;;;;;5052845;28;20684;-57
2023/05/29 05:16:02;;;;;;;12.67;2.77;;;11.80;99.90;;;;;;5035356;28;20313;-57
2023/05/29 05:18:31;;;;;;;10.37;3.10;;;12.00;99.90;;;;;;5036320;28;20830;-57
2023/05/29 05:21:05;;;;;;;13.67;2.93;;;12.10;99.90;;;;;;5044742;28;20636;-57
2023/05/29 05:23:35;;;;;;;12.17;3.30;;;12.30;99.90;;;;;;5053327;28;20710;-57
2023/05/29 05:26:23;;;;;;;11.90;2.37;;;12.50;99.90;;;;;;5053630;28;20237;-57
2023/05/29 05:28:51;;;;;;;14.67;3.17;;;12.60;99.90;;;;;;5052757;28;20666;-57
2023/05/29 05:31:19;;;;;;;11.97;2.70;;;12.70;99.90;;;;;;5034380;28;20263;-57
2023/05/29 05:33:47;;;;;;;12.90;3.10;;;12.70;99.90;;;;;;5033319;28;20617;-57
2023/05/29 05:36:17;;;;;;;13.50;3.20;;;12.70;99.90;;;;;;5053601;28;20249;-57
2023/05/29 05:38:45;;;;;;;15.37;2.83;;;12.90;99.90;;;;;;5053063;28;20234;-57
2023/05/29 05:41:13;;;;;;;11.97;3.00;;;13.00;99.90;;;;;;5053151;28;20227;-57
2023/05/29 05:43:41;;;;;;;13.87;3.00;;;13.10;99.90;;;;;;5048492;28;20226;-56
2023/05/29 05:46:17;;;;;;;12.90;3.00;;;13.00;99.90;;;;;;5053141;28;20226;-57
2023/05/29 05:48:45;;;;;;;16.17;3.80;;;13.10;99.90;;;;;;5052883;28;20234;-57
2023/05/29 05:51:13;;;;;;;13.30;3.47;;;13.20;99.90;;;;;;5052433;28;20239;-57
2023/05/29 05:53:45;;;;;;;15.90;3.63;;;13.40;99.90;;;;;;5052682;28;20227;-57
2023/05/29 05:56:13;;;;;;;18.70;4.10;;;13.40;99.90;;;;;;5053030;28;20243;-55
2023/05/29 05:58:41;;;;;;;14.70;3.33;;;13.60;99.90;;;;;;5047117;28;20322;-56
2023/05/29 06:01:10;;;;;;;18.57;3.33;;;13.50;99.90;;;;;;5032649;28;20695;-57
2023/05/29 06:03:38;;;;;;;15.73;3.23;;;13.40;99.90;;;;;;5036449;28;20586;-57
2023/05/29 06:06:09;;;;;;;16.63;3.47;;;13.50;99.90;;;;;;5052034;28;20281;-57
2023/05/29 06:08:41;;;;;;;17.80;3.73;;;13.60;99.90;;;;;;5048791;28;20227;-56
2023/05/29 06:11:11;;;;;;;15.93;3.37;;;13.60;99.90;;;;;;5051594;28;20317;-57
2023/05/29 06:13:41;;;;;;;17.40;3.77;;;13.60;99.90;;;;;;5051604;28;20714;-57
2023/05/29 06:16:16;;;;;;;14.13;3.07;;;13.80;99.90;;;;;;5052626;28;20265;-57
2023/05/29 06:18:44;;;;;;;15.40;3.57;;;14.00;99.90;;;;;;5049342;28;20243;-57
2023/05/29 06:21:13;;;;;;;14.13;3.47;;;13.90;99.90;;;;;;5045684;28;20265;-57
2023/05/29 06:23:48;;;;;;;19.07;4.20;;;14.10;99.90;;;;;;5035114;28;20235;-57
2023/05/29 06:26:18;;;;;;;15.80;3.60;;;14.30;99.90;;;;;;5045024;28;20231;-57
2023/05/29 06:28:46;;;;;;;16.97;3.60;;;14.30;99.90;;;;;;5041197;28;20708;-57
2023/05/29 06:31:14;;;;;;;14.03;3.27;;;14.60;99.90;;;;;;5050156;28;20245;-57
2023/05/29 06:33:42;;;;;;;15.73;3.53;;;14.80;99.90;;;;;;5036483;28;20232;-57
2023/05/29 06:36:10;;;;;;;16.80;3.80;;;14.80;99.90;;;;;;5051807;28;20652;-57
2023/05/29 06:38:38;;;;;;;14.60;3.33;;;14.90;99.90;;;;;;5035932;28;20779;-57
2023/05/29 06:41:07;;;;;;;16.13;3.63;;;15.20;99.90;;;;;;5032230;28;20684;-57
2023/05/29 06:43:37;;;;;;;17.77;3.87;;;15.50;99.90;;;;;;5039373;28;20224;-57
2023/05/29 06:46:09;;;;;;;14.00;3.30;;;15.60;99.90;;;;;;5052110;28;20228;-58
2023/05/29 06:48:37;;;;;;;17.10;3.73;;;15.30;99.90;;;;;;5051815;28;20407;-57
2023/05/29 06:51:08;;;;;;;17.17;3.20;;;15.30;99.90;;;;;;5045149;28;20807;-55
2023/05/29 06:53:42;;;;;;;15.37;4.17;;;15.50;99.90;;;;;;5052581;28;20231;-57
2023/05/29 06:56:13;;;;;;;17.53;3.60;;;15.60;99.90;;;;;;5042771;28;20224;-57
2023/05/29 06:58:44;;;;;;;12.87;3.33;;;15.90;99.90;;;;;;5049731;28;20227;-57
2023/05/29 07:01:14;;;;;;;15.80;3.50;;;16.10;99.90;;;;;;5045358;28;20282;-57
2023/05/29 07:03:53;;;;;;;16.33;3.60;;;16.20;99.90;;;;;;5031705;28;20231;-57
2023/05/29 07:06:21;;;;;;;16.27;3.60;;;16.60;99.90;;;;;;5052674;28;20322;-57
2023/05/29 07:08:49;;;;;;;13.57;3.30;;;16.50;99.90;;;;;;5052728;28;20231;-57
2023/05/29 07:11:18;;;;;;;17.37;3.80;;;16.60;99.90;;;;;;5051443;28;20702;-57
2023/05/29 07:13:47;;;;;;;12.77;3.43;;;16.70;99.90;;;;;;5035450;28;20231;-57
2023/05/29 07:16:15;;;;;;;9.67;3.73;;;16.80;99.90;;;;;;5048713;28;20224;-57
2023/05/29 07:19:00;;;;;;;15.90;4.03;;;17.10;99.90;;;;;;5051289;28;20225;-57
2023/05/29 07:21:31;;;;;;;15.47;3.50;;;16.90;99.90;;;;;;5047790;28;20240;-57
2023/05/29 07:24:00;;;;;;;11.17;3.30;;;16.70;99.90;;;;;;5051423;28;20683;-57
2023/05/29 07:26:30;;;;;;;14.07;3.60;;;16.80;99.90;;;;;;5044250;28;20224;-56
2023/05/29 07:29:00;;;;;;;17.07;3.37;;;16.80;99.90;;;;;;5046677;28;20259;-58
2023/05/29 07:31:31;;;;;;;12.50;3.90;;;17.20;99.90;;;;;;5050701;28;20230;-57
2023/05/29 07:33:59;;;;;;;12.27;3.50;;;17.10;99.90;;;;;;5051513;28;20224;-57
2023/05/29 07:36:30;;;;;;;10.97;3.63;;;17.10;99.90;;;;;;5054331;28;20254;-57
2023/05/29 07:38:59;;;;;;;14.03;3.63;;;17.60;99.90;;;;;;5051161;28;20228;-58
2023/05/29 07:41:27;;;;;;;14.93;3.67;;;17.40;99.90;;;;;;5050355;28;20687;-56
2023/05/29 07:43:56;;;;;;;15.30;3.63;;;17.50;99.90;;;;;;5050916;28;20227;-57
2023/05/29 07:46:26;;;;;;;16.07;3.90;;;17.50;99.90;;;;;;5051101;28;20285;-58
2023/05/29 07:49:05;;;;;;;17.47;4.33;;;17.50;99.90;;;;;;5054618;28;20592;-57
2023/05/29 07:51:33;;;;;;;12.80;3.30;;;17.30;99.90;;;;;;5047468;28;20252;-57
2023/05/29 07:54:01;;;;;;;11.63;3.33;;;17.50;99.90;;;;;;5031175;28;20228;-57
2023/05/29 07:56:30;;;;;;;13.37;3.83;;;17.70;99.90;;;;;;5031406;28;20701;-57
2023/05/29 07:58:59;;;;;;;13.23;3.43;;;17.70;99.90;;;;;;5038368;28;20686;-57
2023/05/29 08:01:28;;;;;;;11.30;2.93;;;17.70;99.90;;;;;;5031923;28;20249;-57
2023/05/29 08:03:56;;;;;;;12.93;3.50;;;18.10;99.90;;;;;;5041325;28;20283;-55
2023/05/29 08:06:33;;;;;;;13.83;4.20;;;18.10;99.90;;;;;;5054065;28;20249;-57
2023/05/29 08:09:02;;;;;;;12.17;3.20;;;18.20;99.90;;;;;;5038962;28;20590;-58
2023/05/29 08:11:31;;;;;;;13.13;3.23;;;18.70;99.90;;;;;;5030878;28;20235;-57
2023/05/29 08:13:59;;;;;;;11.70;3.50;;;19.30;99.90;;;;;;5036781;28;20333;-56
2023/05/29 08:16:28;;;;;;;12.63;3.23;;;19.10;99.90;;;;;;5030851;28;20223;-57
2023/05/29 08:18:57;;;;;;;11.00;3.40;;;19.40;99.90;;;;;;5039882;28;20275;-57
2023/05/29 08:21:26;;;;;;;11.00;3.73;;;19.50;99.90;;;;;;5042181;28;20739;-57
2023/05/29 08:23:54;;;;;;;9.07;3.33;;;19.60;99.90;;;;;;5051793;28;20226;-57
2023/05/29 08:26:22;;;;;;;11.87;3.13;;;19.70;99.90;;;;;;5042732;28;20598;-57
2023/05/29 08:28:50;;;;;;;13.77;3.70;;;19.60;99.90;;;;;;5033202;28;20227;-57
2023/05/29 08:31:18;;;;;;;12.30;3.40;;;19.50;99.90;;;;;;5045601;28;20248;-57
2023/05/29 08:33:48;;;;;;;13.37;3.27;;;19.60;99.90;;;;;;5035884;28;20226;-55
2023/05/29 08:36:17;;;;;;;11.73;3.80;;;19.50;99.90;;;;;;5046120;28;20218;-56
2023/05/29 08:38:45;;;;;;;11.53;3.50;;;19.30;99.90;;;;;;5050601;28;20249;-57
2023/05/29 08:41:22;;;;;;;9.77;3.07;;;19.40;99.90;;;;;;5035809;28;20224;-57
2023/05/29 08:43:51;;;;;;;11.80;3.30;;;19.80;99.90;;;;;;5036593;28;20224;-56
2023/05/29 08:46:20;;;;;;;13.03;3.67;;;20.30;99.90;;;;;;5037908;28;20698;-56
2023/05/29 08:48:50;;;;;;;13.93;3.80;;;20.20;99.90;;;;;;5048304;28;20222;-57
2023/05/29 08:51:21;;;;;;;12.93;3.30;;;19.90;99.90;;;;;;5052720;28;20230;-57
2023/05/29 08:53:49;;;;;;;13.17;3.40;;;19.80;99.90;;;;;;5049220;28;20231;-57
2023/05/29 08:56:17;;;;;;;9.83;3.30;;;20.20;99.90;;;;;;5054836;28;20310;-56
2023/05/29 08:59:02;;;;;;;12.80;3.13;;;20.50;99.90;;;;;;5052440;28;20247;-57
2023/05/29 09:01:35;;;;;;;13.63;3.53;;;20.60;99.90;;;;;;5034953;28;20251;-57
2023/05/29 09:04:05;;;;;;;12.33;3.63;;;20.50;99.90;;;;;;5035354;28;20224;-57
2023/05/29 09:06:33;;;;;;;15.60;3.87;;;20.40;99.90;;;;;;5057831;28;20591;-57
2023/05/29 09:09:01;;;;;;;13.13;3.10;;;20.20;99.90;;;;;;5055162;28;20228;-56
2023/05/29 09:11:29;;;;;;;9.03;3.10;;;20.60;99.90;;;;;;5048093;28;20306;-56
2023/05/29 09:13:59;;;;;;;12.87;3.43;;;20.50;99.90;;;;;;5039784;28;20290;-56
2023/05/29 09:16:27;;;;;;;13.80;3.60;;;20.20;99.90;;;;;;5041510;28;20249;-56
2023/05/29 09:19:07;;;;;;;12.80;3.50;;;20.50;99.90;;;;;;5044622;28;20598;-57
2023/05/29 09:21:36;;;;;;;13.13;3.60;;;20.30;99.90;;;;;;5053803;28;20251;-57
2023/05/29 09:24:05;;;;;;;9.67;3.10;;;20.40;99.90;;;;;;5046727;28;20231;-56
2023/05/29 09:26:34;;;;;;;13.50;3.33;;;20.90;99.90;;;;;;5039990;28;20589;-55
2023/05/29 09:29:04;;;;;;;12.07;3.33;;;20.50;99.90;;;;;;5054751;28;20220;-57
2023/05/29 09:31:33;;;;;;;11.30;3.43;;;20.50;99.90;;;;;;5054230;28;20246;-57
2023/05/29 09:34:04;;;;;;;9.67;3.20;;;20.90;99.90;;;;;;5053330;28;20232;-57
2023/05/29 09:36:33;;;;;;;11.50;3.30;;;21.50;99.90;;;;;;5057762;28;20226;-56
2023/05/29 09:39:04;;;;;;;13.30;3.37;;;21.60;99.90;;;;;;5054522;28;20595;-56
2023/05/29 09:41:44;;;;;;;11.87;3.47;;;21.90;99.90;;;;;;5053857;28;20675;-57
2023/05/29 09:44:14;;;;;;;13.33;3.57;;;21.80;99.90;;;;;;5049064;28;20264;-57
2023/05/29 09:46:42;;;;;;;11.30;3.17;;;22.10;99.90;;;;;;5053713;28;20224;-57
2023/05/29 09:49:13;;;;;;;7.63;3.03;;;22.40;99.90;;;;;;5057354;28;20302;-57
2023/05/29 09:51:47;;;;;;;11.07;3.43;;;22.60;99.90;;;;;;5047860;28;20306;-57
2023/05/29 09:54:16;;;;;;;12.27;3.47;;;22.60;99.90;;;;;;5053982;28;20234;-57
2023/05/29 09:56:46;;;;;;;11.70;2.93;;;22.90;99.90;;;;;;5034235;28;20228;-57
2023/05/29 09:59:15;;;;;;;10.83;3.30;;;22.80;99.90;;;;;;5049307;28;20270;-57
2023/05/29 10:01:44;;;;;;;9.87;3.20;;;22.10;99.90;;;;;;5040021;28;20298;-57
2023/05/29 10:04:13;;;;;;;10.77;3.20;;;22.20;99.90;;;;;;5034310;28;20262;-57
2023/05/29 10:06:46;;;;;;;10.27;3.07;;;22.70;99.90;;;;;;5050874;28;20730;-56
2023/05/29 10:09:19;;;;;;;12.40;3.43;;;22.70;99.90;;;;;;5054091;28;20254;-57
2023/05/29 10:11:49;;;;;;;11.47;2.97;;;22.70;99.90;;;;;;5053852;28;20228;-56
2023/05/29 10:14:20;;;;;;;9.87;2.93;;;22.70;99.90;;;;;;5037023;28;20237;-57
2023/05/29 10:16:50;;;;;;;14.23;3.63;;;22.50;99.90;;;;;;5033891;28;20583;-57
2023/05/29 10:19:25;;;;;;;10.73;3.33;;;22.80;99.90;;;;;;5046554;28;20749;-57
2023/05/29 10:21:55;;;;;;;12.20;3.50;;;22.60;99.90;;;;;;5053541;28;20269;-58
2023/05/29 10:24:25;;;;;;;11.70;3.30;;;22.70;99.90;;;;;;5053792;28;20622;-56
2023/05/29 10:26:54;;;;;;;9.00;3.30;;;23.00;99.90;;;;;;5053780;28;20226;-57
2023/05/29 10:29:28;;;;;;;10.50;3.07;;;23.20;99.90;;;;;;5037837;28;20307;-57
2023/05/29 10:32:07;;;;;;;10.17;3.00;;;22.40;99.90;;;;;;5033384;28;20236;-56
2023/05/29 10:34:43;;;;;;;10.60;3.40;;;22.40;99.90;;;;;;5044670;28;20238;-57
2023/05/29 10:37:22;;;;;;;11.10;3.60;;;22.10;99.90;;;;;;5046635;28;20216;-57
2023/05/29 10:39:50;;;;;;;16.70;3.40;;;22.30;99.90;;;;;;5053362;28;20277;-58
2023/05/29 10:42:44;;;;;;;8.30;2.87;;;22.40;99.90;;;;;;5053425;28;20589;-57
2023/05/29 10:45:49;;;;;;;7.33;3.00;;;22.60;99.90;;;;;;5050486;28;20629;-57
2023/05/29 10:48:42;;;;;;;14.03;3.40;;;23.30;99.90;;;;;;5054024;28;20256;-57
2023/05/29 10:51:31;;;;;;;10.70;3.43;;;23.10;99.90;;;;;;5045997;28;20228;-58
2023/05/29 10:54:00;;;;;;;11.07;3.77;;;23.20;99.90;;;;;;5053146;28;20287;-57
2023/05/29 10:56:30;;;;;;;7.53;3.30;;;23.10;99.90;;;;;;5053066;28;20231;-57
2023/05/29 10:59:01;;;;;;;9.17;3.03;;;22.80;99.90;;;;;;5048482;28;20612;-57
2023/05/29 11:01:31;;;;;;;10.00;2.93;;;22.60;99.90;;;;;;5051757;28;20231;-57
2023/05/29 11:04:28;;;;;;;9.70;3.13;;;22.50;99.90;;;;;;5052931;28;20220;-57
2023/05/29 11:06:56;;;;;;;11.90;3.90;;;22.20;99.90;;;;;;5052830;28;20234;-57
2023/05/29 11:09:30;;;;;;;9.40;3.07;;;23.00;99.90;;;;;;5052991;28;20256;-55
2023/05/29 11:12:35;;;;;;;10.90;3.10;;;23.20;99.90;;;;;;5047017;28;20303;-57
2023/05/29 11:15:05;;;;;;;10.63;3.20;;;23.20;99.90;;;;;;5033931;28;20239;-57
2023/05/29 11:17:44;;;;;;;11.93;3.63;;;23.60;99.90;;;;;;5032735;28;20243;-57
2023/05/29 11:20:25;;;;;;;12.20;3.70;;;23.60;99.90;;;;;;5052787;28;20226;-57
2023/05/29 11:23:02;;;;;;;13.33;4.07;;;23.50;99.90;;;;;;5052517;28;20244;-55
2023/05/29 11:25:36;;;;;;;12.70;4.00;;;23.30;99.90;;;;;;5052567;28;20255;-57
2023/05/29 11:28:08;;;;;;;11.63;3.63;;;23.60;99.90;;;;;;5052618;28;20224;-57
2023/05/29 11:30:46;;;;;;;13.07;3.60;;;23.80;99.90;;;;;;5034174;28;20741;-57
2023/05/29 11:33:25;;;;;;;10.97;3.70;;;23.70;99.90;;;;;;5032729;28;20233;-57
2023/05/29 11:35:58;;;;;;;12.00;3.63;;;24.10;99.90;;;;;;5045637;28;20228;-55
2023/05/29 11:38:26;;;;;;;12.57;4.07;;;23.80;99.90;;;;;;5052278;28;20224;-56
2023/05/29 11:40:57;;;;;;;12.73;3.60;;;23.60;99.90;;;;;;5052538;28;20220;-57
2023/05/29 11:43:26;;;;;;;12.10;3.40;;;23.90;99.90;;;;;;5052371;28;20220;-56
2023/05/29 11:45:54;;;;;;;13.33;3.90;;;23.80;99.90;;;;;;5047158;28;20235;-57
2023/05/29 11:48:23;;;;;;;7.53;2.93;;;23.50;99.90;;;;;;5053988;28;20228;-57
2023/05/29 11:50:51;;;;;;;12.97;3.37;;;23.80;99.90;;;;;;5053714;28;20726;-57
2023/05/29 11:53:19;;;;;;;11.53;3.30;;;23.30;99.90;;;;;;5052303;28;20217;-57
2023/05/29 11:55:48;;;;;;;12.47;3.50;;;23.40;99.90;;;;;;5039468;28;20666;-57
2023/05/29 11:58:17;;;;;;;12.93;3.20;;;23.10;99.90;;;;;;5032862;28;20230;-57
2023/05/29 12:00:50;;;;;;;13.53;3.60;;;23.10;99.90;;;;;;5032996;28;20245;-57
2023/05/29 12:03:18;;;;;;;10.00;3.37;;;22.70;99.90;;;;;;5048596;28;20278;-57
2023/05/29 12:05:52;;;;;;;12.63;3.20;;;22.80;99.90;;;;;;5051934;28;20255;-57
2023/05/29 12:08:22;;;;;;;13.17;3.73;;;22.70;99.90;;;;;;5052147;28;20717;-58
2023/05/29 12:10:52;;;;;;;15.50;3.80;;;22.40;99.90;;;;;;5052484;28;20224;-57
2023/05/29 12:13:23;;;;;;;12.60;3.57;;;21.50;99.90;;;;;;5055727;28;20211;-58
2023/05/29 12:15:55;;;;;;;11.97;3.30;;;21.40;99.90;;;;;;5042239;28;20736;-56
2023/05/29 12:18:24;;;;;;;12.17;3.80;;;21.80;99.90;;;;;;5039473;28;20586;-57
2023/05/29 12:20:57;;;;;;;14.57;3.87;;;22.10;99.90;;;;;;5057189;28;20220;-57
2023/05/29 12:23:26;;;;;;;12.53;3.50;;;21.80;99.90;;;;;;5056251;28;20220;-56
2023/05/29 12:25:54;;;;;;;9.97;3.27;;;21.30;99.90;;;;;;5056001;28;20683;-58
2023/05/29 12:28:24;;;;;;;14.23;3.40;;;21.10;99.90;;;;;;5055998;28;20582;-57
2023/05/29 12:30:59;;;;;;;11.47;3.70;;;21.00;99.90;;;;;;5043562;28;20650;-57
2023/05/29 12:33:30;;;;;;;13.47;3.80;;;20.90;99.90;;;;;;5035650;28;20233;-57
2023/05/29 12:36:10;;;;;;;13.93;3.50;;;20.90;99.90;;;;;;5053549;28;20637;-57
2023/05/29 12:38:48;;;;;;;11.37;3.30;;;20.80;99.90;;;;;;5054884;28;20259;-57
2023/05/29 12:41:26;;;;;;;10.97;3.53;;;20.80;99.90;;;;;;5055770;28;20543;-56
2023/05/29 12:43:57;;;;;;;12.90;3.70;;;21.00;99.90;;;;;;5055689;28;20271;-57
2023/05/29 12:46:25;;;;;;;14.73;3.97;;;21.00;99.90;;;;;;5039983;28;20259;-57
2023/05/29 12:48:55;;;;;;;13.17;3.37;;;20.80;99.90;;;;;;5041324;28;20312;-57
2023/05/29 12:51:27;;;;;;;16.47;3.70;;;20.60;99.90;;;;;;5055380;28;20220;-57
2023/05/29 12:53:57;;;;;;;13.10;3.57;;;20.60;99.90;;;;;;5055515;28;20310;-58
2023/05/29 12:56:26;;;;;;;15.10;3.90;;;20.50;99.90;;;;;;5055364;28;20311;-57